createdAt,value
2019-03-27T00:00:02.029Z,24.29
2019-03-27T00:02:28.789Z,24.26
2019-03-27T00:04:55.111Z,24.20
2019-03-27T00:07:21.432Z,24.22
2019-03-27T00:09:47.826Z,24.28
2019-03-27T00:12:14.157Z,24.20
2019-03-27T00:14:40.543Z,24.26
2019-03-27T00:17:06.866Z,24.35
2019-03-27T00:19:33.199Z,24.25
2019-03-27T00:21:59.530Z,24.35
2019-03-27T00:24:26.064Z,24.35
2019-03-27T00:26:52.401Z,24.27
2019-03-27T00:29:18.726Z,24.25
2019-03-27T00:31:45.078Z,24.19
2019-03-27T00:34:11.418Z,24.40
2019-03-27T00:36:37.811Z,24.33
2019-03-27T00:39:04.202Z,24.39
2019-03-27T00:41:30.585Z,24.38
2019-03-27T00:43:57.122Z,24.33
2019-03-27T00:46:23.441Z,24.35
2019-03-27T00:48:49.831Z,24.37
2019-03-27T00:51:16.169Z,24.28
2019-03-27T00:53:42.711Z,24.35
2019-03-27T00:56:09.063Z,24.40
2019-03-27T00:58:35.393Z,24.36
2019-03-27T01:01:01.773Z,24.43
2019-03-27T01:03:28.122Z,24.10
2019-03-27T01:08:48.888Z,23.43
2019-03-27T01:11:15.226Z,23.71
2019-03-27T14:44:34.385Z,17.18
2019-03-27T14:47:00.783Z,17.24
2019-03-27T14:49:27.214Z,17.03
2019-03-27T14:52:07.430Z,17.10
2019-03-27T14:54:19.915Z,16.90
2019-03-27T14:56:46.280Z,17.23
2019-03-27T14:59:12.641Z,17.28
2019-03-27T15:01:39.060Z,17.17
2019-03-27T15:04:05.426Z,16.95
2019-03-27T15:06:31.804Z,17.17
2019-03-27T15:08:58.205Z,16.94
2019-03-27T15:11:24.599Z,16.86
2019-03-27T15:13:51.031Z,16.59
2019-03-27T15:16:17.411Z,16.84
2019-03-27T15:18:44.917Z,16.56
2019-03-27T15:21:11.413Z,16.69
2019-03-27T15:23:37.681Z,17.30
2019-03-27T15:26:04.084Z,16.81
2019-03-27T15:28:30.521Z,16.70
2019-03-27T15:30:56.853Z,16.56
2019-03-27T15:33:23.189Z,16.77
2019-03-27T15:35:49.519Z,16.37
2019-03-27T15:38:15.876Z,16.22
2019-03-27T15:40:42.213Z,16.79
2019-03-27T15:43:08.592Z,16.33
2019-03-27T15:45:34.943Z,16.30
2019-03-27T15:48:01.352Z,16.33
2019-03-27T15:50:27.722Z,16.54
2019-03-27T15:52:54.072Z,16.24
2019-03-27T15:55:22.943Z,16.34
2019-03-27T15:57:49.246Z,16.37
2019-03-27T16:00:15.613Z,16.08
2019-03-27T16:02:42.077Z,16.23
2019-03-27T16:05:08.455Z,16.30
2019-03-27T16:07:34.839Z,15.85
2019-03-27T16:10:01.203Z,15.94
2019-03-27T16:12:27.541Z,16.27
2019-03-27T16:14:53.875Z,16.18
2019-03-27T16:17:20.358Z,16.27
2019-03-27T16:19:46.768Z,16.12
2019-03-27T16:22:13.121Z,16.11
2019-03-27T16:24:39.531Z,16.33
2019-03-27T16:27:05.866Z,15.83
2019-03-27T16:29:32.132Z,15.99
2019-03-27T16:31:58.497Z,16.24
2019-03-27T16:34:25.319Z,15.74
2019-03-27T16:36:54.152Z,15.83
2019-03-27T16:39:17.648Z,15.76
2019-03-27T16:41:44.024Z,15.87
2019-03-27T16:44:10.355Z,15.43
2019-03-27T16:46:36.709Z,15.65
2019-03-27T16:49:03.047Z,15.86
2019-03-27T16:51:29.436Z,15.35
2019-03-27T16:53:55.830Z,15.64
2019-03-27T16:56:22.163Z,15.21
2019-03-27T16:58:48.513Z,15.36
2019-03-27T17:01:14.878Z,15.46
2019-03-27T17:03:41.225Z,15.14
2019-03-27T17:06:07.592Z,15.14
2019-03-27T17:08:33.929Z,15.30
2019-03-27T17:11:00.261Z,14.87
2019-03-27T17:13:26.595Z,15.34
2019-03-27T17:15:52.933Z,14.82
2019-03-27T17:18:19.320Z,15.34
2019-03-27T17:20:45.697Z,15.25
2019-03-27T17:23:17.958Z,15.17
2019-03-27T17:25:38.398Z,15.07
2019-03-27T17:28:04.720Z,14.95
2019-03-27T17:30:32.108Z,14.97
2019-03-27T17:32:57.486Z,15.09
2019-03-27T17:35:23.841Z,15.26
2019-03-27T17:37:50.248Z,14.66
2019-03-27T17:40:16.633Z,15.04
2019-03-27T17:42:43.100Z,15.11
2019-03-27T17:45:09.443Z,15.00
2019-03-27T17:47:35.767Z,14.86
2019-03-27T17:50:02.100Z,14.79
2019-03-27T17:52:28.428Z,14.86
2019-03-27T17:54:54.752Z,14.68
2019-03-27T17:57:21.179Z,14.95
2019-03-27T17:59:47.563Z,15.11
2019-03-27T18:02:13.935Z,14.75
2019-03-27T18:04:40.316Z,14.92
2019-03-27T18:07:06.672Z,15.41
2019-03-27T18:09:33.015Z,15.06
2019-03-27T18:12:01.594Z,15.36
2019-03-27T18:14:27.997Z,15.29
2019-03-27T18:16:54.387Z,15.18
2019-03-27T18:19:20.736Z,15.24
2019-03-27T18:21:47.076Z,15.23
2019-03-27T18:24:13.518Z,15.11
2019-03-27T18:26:39.860Z,15.31
2019-03-27T18:29:06.193Z,15.12
2019-03-27T18:31:32.540Z,15.31
2019-03-27T18:33:58.931Z,15.10
2019-03-27T18:36:25.253Z,15.28
2019-03-27T18:38:51.636Z,15.21
2019-03-27T18:41:17.990Z,15.26
2019-03-27T18:43:44.322Z,15.19
2019-03-27T18:46:10.706Z,15.25
2019-03-27T18:48:37.036Z,15.27
2019-03-27T18:51:03.356Z,15.27
2019-03-27T18:53:29.694Z,15.43
2019-03-27T18:55:56.054Z,15.31
2019-03-27T18:58:22.382Z,15.50
2019-03-27T19:00:48.736Z,15.50
2019-03-27T19:03:15.028Z,15.62
2019-03-27T19:05:41.416Z,15.77
2019-03-27T19:08:07.769Z,15.71
2019-03-27T19:10:34.089Z,15.92
2019-03-27T19:13:00.418Z,15.95
2019-03-27T19:15:26.755Z,16.05
2019-03-27T19:17:53.105Z,16.01
2019-03-27T19:20:19.616Z,16.20
2019-03-27T19:22:46.056Z,16.26
2019-03-27T19:25:12.456Z,16.39
2019-03-27T19:27:38.744Z,16.45
2019-03-27T19:30:05.075Z,16.46
2019-03-27T19:32:31.465Z,16.59
2019-03-27T19:34:57.850Z,16.59
2019-03-27T19:37:24.190Z,16.71
2019-03-27T19:39:50.521Z,16.74
2019-03-27T19:42:16.945Z,16.85
2019-03-27T19:44:43.305Z,16.90
2019-03-27T19:47:09.640Z,16.96
2019-03-27T19:49:35.986Z,17.05
2019-03-27T19:52:02.350Z,17.14
2019-03-27T19:54:28.708Z,17.29
2019-03-27T19:56:55.032Z,17.37
2019-03-27T19:59:21.401Z,17.37
2019-03-27T20:01:47.744Z,17.52
2019-03-27T20:04:14.048Z,17.52
2019-03-27T20:06:40.377Z,17.63
2019-03-27T20:09:06.715Z,17.73
2019-03-27T20:11:33.207Z,17.71
2019-03-27T20:13:59.388Z,17.86
2019-03-27T20:16:25.761Z,17.82
2019-03-27T20:18:52.139Z,17.88
2019-03-27T20:21:18.468Z,17.92
2019-03-27T20:23:44.829Z,18.15
2019-03-27T20:26:11.167Z,18.14
2019-03-27T20:28:37.582Z,18.21
2019-03-27T20:31:04.064Z,18.35
2019-03-27T20:33:30.461Z,18.35
2019-03-27T20:35:56.810Z,18.41
2019-03-27T20:38:23.225Z,18.49
2019-03-27T20:40:49.646Z,18.67
2019-03-27T20:43:15.886Z,18.70
2019-03-27T20:45:42.362Z,18.81
2019-03-27T20:48:08.630Z,18.85
2019-03-27T20:50:34.953Z,18.99
2019-03-27T20:53:01.311Z,18.91
2019-03-27T20:55:30.654Z,19.09
2019-03-27T20:57:54.088Z,19.17
2019-03-27T21:00:20.393Z,19.28
2019-03-27T21:02:46.725Z,19.33
2019-03-27T21:05:13.140Z,19.33
2019-03-27T21:07:39.459Z,19.42
2019-03-27T21:10:05.803Z,19.52
2019-03-27T21:12:32.169Z,19.63
2019-03-27T21:14:58.570Z,19.66
2019-03-27T21:17:24.916Z,19.81
2019-03-27T21:19:51.256Z,19.76
2019-03-27T21:22:17.583Z,19.84
2019-03-27T21:24:43.969Z,19.93
2019-03-27T21:27:10.276Z,20.03
2019-03-27T21:29:36.601Z,20.06
2019-03-27T21:32:03.035Z,20.21
2019-03-27T21:34:29.390Z,20.28
2019-03-27T21:36:55.720Z,20.39
2019-03-27T21:39:22.113Z,20.41
2019-03-27T21:41:48.398Z,20.55
2019-03-27T21:44:14.718Z,20.57
2019-03-27T21:46:41.045Z,20.74
2019-03-27T21:49:07.423Z,20.75
2019-03-27T21:51:33.796Z,20.93
2019-03-27T21:54:00.126Z,20.88
2019-03-27T21:56:26.449Z,20.96
2019-03-27T21:58:55.562Z,21.02
2019-03-27T22:01:21.926Z,21.21
2019-03-27T22:03:48.285Z,21.22
2019-03-27T22:06:14.656Z,21.24
2019-03-27T22:08:40.992Z,21.37
2019-03-27T22:11:07.371Z,21.45
2019-03-27T22:13:33.710Z,21.47
2019-03-27T22:16:00.074Z,21.55
2019-03-27T22:18:26.401Z,21.74
2019-03-27T22:20:52.741Z,21.70
2019-03-27T22:23:19.082Z,21.73
2019-03-27T22:25:45.477Z,21.79
2019-03-27T22:28:11.746Z,21.95
2019-03-27T22:30:38.093Z,22.01
2019-03-27T22:33:04.430Z,22.04
2019-03-27T22:35:30.889Z,22.10
2019-03-27T22:37:57.300Z,22.21
2019-03-27T22:40:23.791Z,22.12
2019-03-27T22:42:50.130Z,22.38
2019-03-27T22:45:16.461Z,22.26
2019-03-27T22:47:42.825Z,22.47
2019-03-27T22:50:09.178Z,22.42
2019-03-27T22:52:35.560Z,22.48
2019-03-27T22:55:01.893Z,22.55
2019-03-27T22:57:28.259Z,22.63
2019-03-27T22:59:54.597Z,22.58
2019-03-27T23:02:20.984Z,22.68
2019-03-27T23:04:47.318Z,22.75
2019-03-27T23:07:13.682Z,22.87
2019-03-27T23:09:40.024Z,22.84
2019-03-27T23:12:06.417Z,22.96
2019-03-27T23:14:32.766Z,23.02
2019-03-27T23:16:59.155Z,23.02
2019-03-27T23:19:25.484Z,23.03
2019-03-27T23:21:51.841Z,23.07
2019-03-27T23:24:18.215Z,23.17
2019-03-27T23:26:44.552Z,23.23
2019-03-27T23:29:10.882Z,23.25
2019-03-27T23:31:37.213Z,23.34
2019-03-27T23:34:03.595Z,23.45
2019-03-27T23:36:29.940Z,23.53
2019-03-27T23:38:56.329Z,23.48
2019-03-27T23:41:22.659Z,23.53
2019-03-27T23:43:49.120Z,23.48
2019-03-27T23:46:15.367Z,23.63
2019-03-27T23:48:41.698Z,23.67
2019-03-27T23:51:08.052Z,23.68
2019-03-27T23:53:34.371Z,23.74
2019-03-27T23:56:00.712Z,23.81
2019-03-27T23:58:27.043Z,23.87
